Time,TemperatureF,DewpointF,PressureIn,WindDirection,WindDirectionDegrees,WindSpeedMPH,WindSpeedGustMPH,Humidity,HourlyPrecipIn,Conditions,Clouds,dailyrainin,SoftwareType,DateUTC
2013-12-01 00:00:00,31.0,24.6,30.38,SSE,167,4.0,4.0,77,0.00,,,0.00,Wunderground v.1.15,2013-12-01 05:00:00,
2013-12-01 00:05:00,31.0,24.6,30.38,SE,132,4.0,4.0,77,0.00,,,0.00,Wunderground v.1.15,2013-12-01 05:05:00,
2013-12-01 00:10:00,31.1,24.7,30.38,South,173,4.0,4.0,77,0.00,,,0.00,Wunderground v.1.15,2013-12-01 05:10:00,
2013-12-01 00:15:00,31.1,24.7,30.38,SSE,166,4.0,5.0,77,0.00,,,0.00,Wunderground v.1.15,2013-12-01 05:15:00,
2013-12-01 00:20:00,31.1,24.7,30.38,South,174,4.0,4.0,77,0.00,,,0.00,Wunderground v.1.15,2013-12-01 05:20:00,
2013-12-01 00:25:00,31.1,24.7,30.38,SSE,157,3.0,4.0,77,0.00,,,0.00,Wunderground v.1.15,2013-12-01 05:25:00,
2013-12-01 00:30:00,31.1,25.0,30.37,SSE,167,2.0,4.0,78,0.00,,,0.00,Wunderground v.1.15,2013-12-01 05:30:00,
2013-12-01 00:35:00,31.0,24.9,30.38,SSE,162,2.0,4.0,78,0.00,,,0.00,Wunderground v.1.15,2013-12-01 05:35:00,
2013-12-01 00:40:00,30.9,24.8,30.38,South,171,1.0,1.0,78,0.00,,,0.00,Wunderground v.1.15,2013-12-01 05:40:00,
2013-12-01 00:45:00,31.0,24.9,30.37,SSW,200,2.0,5.0,78,0.00,,,0.00,Wunderground v.1.15,2013-12-01 05:45:00,
2013-12-01 00:50:00,30.9,24.8,30.37,SSW,209,2.0,2.0,78,0.00,,,0.00,Wunderground v.1.15,2013-12-01 05:50:00,
2013-12-01 00:55:00,30.8,24.7,30.38,South,188,1.0,2.0,78,0.00,,,0.00,Wunderground v.1.15,2013-12-01 05:55:00,
2013-12-01 01:00:00,30.8,25.1,30.38,South,182,1.0,1.0,79,0.00,,,0.00,Wunderground v.1.15,2013-12-01 06:00:00,
2013-12-01 01:05:00,30.8,25.1,30.38,WSW,257,1.0,4.0,79,0.00,,,0.00,Wunderground v.1.15,2013-12-01 06:05:00,
2013-12-01 01:10:00,30.8,25.1,30.37,South,171,1.0,4.0,79,0.00,,,0.00,Wunderground v.1.15,2013-12-01 06:10:00,
2013-12-01 01:15:00,30.8,25.1,30.37,East,89,1.0,4.0,79,0.00,,,0.00,Wunderground v.1.15,2013-12-01 06:15:00,
2013-12-01 01:20:00,30.7,25.0,30.37,East,89,0.0,0.0,79,0.00,,,0.00,Wunderground v.1.15,2013-12-01 06:20:00,
2013-12-01 01:25:00,30.6,25.2,30.38,East,89,0.0,0.0,80,0.00,,,0.00,Wunderground v.1.15,2013-12-01 06:25:00,
2013-12-01 01:30:00,30.5,24.8,30.37,East,89,0.0,0.0,79,0.00,,,0.00,Wunderground v.1.15,2013-12-01 06:30:00,
2013-12-01 01:35:00,30.1,24.1,30.37,East,81,0.0,0.0,78,0.00,,,0.00,Wunderground v.1.15,2013-12-01 06:35:00,
2013-12-01 01:39:00,29.7,24.0,30.37,East,81,0.0,0.0,79,0.00,,,0.00,Wunderground v.1.15,2013-12-01 06:39:00,
2013-12-01 01:45:00,29.3,23.6,30.37,East,81,0.0,0.0,79,0.00,,,0.00,Wunderground v.1.15,2013-12-01 06:45:00,
2013-12-01 01:50:00,29.0,23.6,30.36,East,81,0.0,0.0,80,0.00,,,0.00,Wunderground v.1.15,2013-12-01 06:50:00,
2013-12-01 01:55:00,28.8,23.4,30.36,East,81,0.0,0.0,80,0.00,,,0.00,Wunderground v.1.15,2013-12-01 06:55:00,
2013-12-01 02:00:00,28.6,23.5,30.35,East,81,0.0,0.0,81,0.00,,,0.00,Wunderground v.1.15,2013-12-01 07:00:00,
2013-12-01 02:05:00,28.4,23.3,30.35,East,81,0.0,0.0,81,0.00,,,0.00,Wunderground v.1.15,2013-12-01 07:05:00,
2013-12-01 02:10:00,28.2,23.1,30.35,East,81,0.0,0.0,81,0.00,,,0.00,Wunderground v.1.15,2013-12-01 07:10:00,
2013-12-01 02:15:00,28.1,23.3,30.35,East,81,0.0,0.0,82,0.00,,,0.00,Wunderground v.1.15,2013-12-01 07:15:00,
2013-12-01 02:20:00,28.0,23.5,30.35,East,81,0.0,0.0,83,0.00,,,0.00,Wunderground v.1.15,2013-12-01 07:20:00,
2013-12-01 02:25:00,27.9,23.4,30.34,East,81,0.0,0.0,83,0.00,,,0.00,Wunderground v.1.15,2013-12-01 07:25:00,
2013-12-01 02:30:00,27.8,23.6,30.34,East,80,0.0,0.0,84,0.00,,,0.00,Wunderground v.1.15,2013-12-01 07:30:00,
2013-12-01 02:35:00,27.8,23.6,30.34,East,80,0.0,0.0,84,0.00,,,0.00,Wunderground v.1.15,2013-12-01 07:35:00,
2013-12-01 02:40:00,27.9,24.0,30.34,East,79,0.0,0.0,85,0.00,,,0.00,Wunderground v.1.15,2013-12-01 07:40:00,
2013-12-01 02:45:00,28.0,24.1,30.33,East,79,0.0,0.0,85,0.00,,,0.00,Wunderground v.1.15,2013-12-01 07:45:00,
2013-12-01 02:50:00,28.0,24.1,30.33,East,79,0.0,0.0,85,0.00,,,0.00,Wunderground v.1.15,2013-12-01 07:50:00,
2013-12-01 03:00:00,28.1,24.5,30.33,East,79,0.0,0.0,86,0.00,,,0.00,Wunderground v.1.15,2013-12-01 08:00:00,
2013-12-01 03:05:00,28.2,24.6,30.33,East,79,0.0,0.0,86,0.00,,,0.00,Wunderground v.1.15,2013-12-01 08:05:00,
2013-12-01 03:10:00,28.4,24.7,30.33,East,79,0.0,0.0,86,0.00,,,0.00,Wunderground v.1.15,2013-12-01 08:10:00,
2013-12-01 03:15:00,28.4,24.7,30.33,East,79,0.0,0.0,86,0.00,,,0.00,Wunderground v.1.15,2013-12-01 08:15:00,
2013-12-01 03:20:00,28.3,24.4,30.33,East,79,0.0,0.0,85,0.00,,,0.00,Wunderground v.1.15,2013-12-01 08:20:00,
2013-12-01 03:25:00,28.2,24.3,30.33,East,79,0.0,0.0,85,0.00,,,0.00,Wunderground v.1.15,2013-12-01 08:25:00,
2013-12-01 03:30:00,28.0,24.1,30.33,East,79,0.0,0.0,85,0.00,,,0.00,Wunderground v.1.15,2013-12-01 08:30:00,
2013-12-01 03:35:00,27.9,24.0,30.32,East,79,0.0,0.0,85,0.00,,,0.00,Wunderground v.1.15,2013-12-01 08:35:00,
2013-12-01 03:39:00,27.6,23.7,30.32,East,79,0.0,0.0,85,0.00,,,0.00,Wunderground v.1.15,2013-12-01 08:39:00,
2013-12-01 03:45:00,27.4,23.8,30.32,East,79,0.0,0.0,86,0.00,,,0.00,Wunderground v.1.15,2013-12-01 08:45:00,
2013-12-01 03:50:00,27.2,23.6,30.32,East,79,0.0,0.0,86,0.00,,,0.00,Wunderground v.1.15,2013-12-01 08:50:00,
2013-12-01 03:55:00,26.9,23.3,30.32,East,79,0.0,0.0,86,0.00,,,0.00,Wunderground v.1.15,2013-12-01 08:55:00,
2013-12-01 04:00:00,26.6,22.7,30.31,East,79,0.0,0.0,85,0.00,,,0.00,Wunderground v.1.15,2013-12-01 09:00:00,
2013-12-01 04:05:00,26.3,22.7,30.31,East,79,0.0,0.0,86,0.00,,,0.00,Wunderground v.1.15,2013-12-01 09:05:00,
2013-12-01 04:10:00,26.1,22.5,30.31,East,79,0.0,0.0,86,0.00,,,0.00,Wunderground v.1.15,2013-12-01 09:10:00,
2013-12-01 04:15:00,25.8,22.2,30.31,East,79,0.0,0.0,86,0.00,,,0.00,Wunderground v.1.15,2013-12-01 09:15:00,
2013-12-01 04:20:00,25.6,22.3,30.31,East,79,0.0,0.0,87,0.00,,,0.00,Wunderground v.1.15,2013-12-01 09:20:00,
2013-12-01 04:25:00,25.5,22.4,30.30,East,79,0.0,0.0,88,0.00,,,0.00,Wunderground v.1.15,2013-12-01 09:25:00,
2013-12-01 04:30:00,25.6,22.8,30.30,East,79,0.0,0.0,89,0.00,,,0.00,Wunderground v.1.15,2013-12-01 09:30:00,
2013-12-01 04:35:00,25.6,22.8,30.30,East,79,0.0,0.0,89,0.00,,,0.00,Wunderground v.1.15,2013-12-01 09:35:00,
2013-12-01 04:40:00,25.6,22.8,30.30,East,79,0.0,0.0,89,0.00,,,0.00,Wunderground v.1.15,2013-12-01 09:40:00,
2013-12-01 04:45:00,25.5,22.7,30.29,East,79,0.0,0.0,89,0.00,,,0.00,Wunderground v.1.15,2013-12-01 09:45:00,
2013-12-01 04:50:00,25.5,22.7,30.29,East,79,0.0,0.0,89,0.00,,,0.00,Wunderground v.1.15,2013-12-01 09:50:00,
2013-12-01 04:55:00,25.4,22.6,30.29,East,79,0.0,0.0,89,0.00,,,0.00,Wunderground v.1.15,2013-12-01 09:55:00,
2013-12-01 05:05:00,25.3,22.5,30.29,East,79,0.0,0.0,89,0.00,,,0.00,Wunderground v.1.15,2013-12-01 10:05:00,
2013-12-01 05:10:00,25.3,22.5,30.29,East,79,0.0,0.0,89,0.00,,,0.00,Wunderground v.1.15,2013-12-01 10:10:00,
2013-12-01 05:15:00,25.4,22.9,30.29,East,79,0.0,0.0,90,0.00,,,0.00,Wunderground v.1.15,2013-12-01 10:15:00,
2013-12-01 05:20:00,25.4,22.9,30.28,East,79,0.0,0.0,90,0.00,,,0.00,Wunderground v.1.15,2013-12-01 10:20:00,
2013-12-01 05:25:00,25.3,22.8,30.28,East,79,0.0,0.0,90,0.00,,,0.00,Wunderground v.1.15,2013-12-01 10:25:00,
2013-12-01 05:30:00,25.4,22.9,30.28,East,79,0.0,0.0,90,0.00,,,0.00,Wunderground v.1.15,2013-12-01 10:30:00,
2013-12-01 05:35:00,25.4,22.9,30.27,East,79,0.0,0.0,90,0.00,,,0.00,Wunderground v.1.15,2013-12-01 10:35:00,
2013-12-01 05:40:00,25.4,22.9,30.27,East,79,0.0,0.0,90,0.00,,,0.00,Wunderground v.1.15,2013-12-01 10:40:00,
2013-12-01 05:45:00,25.5,23.0,30.28,East,79,0.0,0.0,90,0.00,,,0.00,Wunderground v.1.15,2013-12-01 10:45:00,
2013-12-01 05:50:00,25.6,23.1,30.28,East,79,0.0,0.0,90,0.00,,,0.00,Wunderground v.1.15,2013-12-01 10:50:00,
2013-12-01 05:55:00,25.6,23.1,30.28,East,79,0.0,0.0,90,0.00,,,0.00,Wunderground v.1.15,2013-12-01 10:55:00,
2013-12-01 06:00:00,25.7,23.2,30.27,East,79,0.0,0.0,90,0.00,,,0.00,Wunderground v.1.15,2013-12-01 11:00:00,
2013-12-01 06:05:00,25.8,23.3,30.27,East,79,0.0,0.0,90,0.00,,,0.00,Wunderground v.1.15,2013-12-01 11:05:00,
2013-12-01 06:10:00,25.8,23.3,30.27,East,79,0.0,0.0,90,0.00,,,0.00,Wunderground v.1.15,2013-12-01 11:10:00,
2013-12-01 06:15:00,25.8,23.3,30.27,East,79,0.0,0.0,90,0.00,,,0.00,Wunderground v.1.15,2013-12-01 11:15:00,
2013-12-01 06:20:00,25.8,23.3,30.27,East,79,0.0,0.0,90,0.00,,,0.00,Wunderground v.1.15,2013-12-01 11:20:00,
2013-12-01 06:25:00,25.9,23.6,30.26,East,79,0.0,0.0,91,0.00,,,0.00,Wunderground v.1.15,2013-12-01 11:25:00,
2013-12-01 06:29:00,26.0,23.7,30.27,East,79,0.0,0.0,91,0.00,,,0.00,Wunderground v.1.15,2013-12-01 11:29:00,
2013-12-01 06:35:00,26.0,23.5,30.26,East,79,0.0,1.0,90,0.00,,,0.00,Wunderground v.1.15,2013-12-01 11:35:00,
2013-12-01 06:40:00,26.1,23.6,30.27,East,79,0.0,1.0,90,0.00,,,0.00,Wunderground v.1.15,2013-12-01 11:40:00,
2013-12-01 06:45:00,26.1,23.6,30.27,East,79,0.0,1.0,90,0.00,,,0.00,Wunderground v.1.15,2013-12-01 11:45:00,
2013-12-01 06:50:00,26.1,23.6,30.26,East,79,0.0,1.0,90,0.00,,,0.00,Wunderground v.1.15,2013-12-01 11:50:00,
2013-12-01 06:55:00,26.1,23.6,30.26,East,79,0.0,1.0,90,0.00,,,0.00,Wunderground v.1.15,2013-12-01 11:55:00,
2013-12-01 07:00:00,26.1,23.6,30.26,East,79,0.0,1.0,90,0.00,,,0.00,Wunderground v.1.15,2013-12-01 12:00:00,
2013-12-01 07:05:00,26.1,23.6,30.26,East,79,0.0,1.0,90,0.00,,,0.00,Wunderground v.1.15,2013-12-01 12:05:00,
2013-12-01 07:10:00,26.1,23.6,30.26,East,79,0.0,1.0,90,0.00,,,0.00,Wunderground v.1.15,2013-12-01 12:10:00,
2013-12-01 07:20:00,26.1,23.6,30.26,East,79,0.0,1.0,90,0.00,,,0.00,Wunderground v.1.15,2013-12-01 12:20:00,
2013-12-01 07:25:00,26.1,23.6,30.25,East,79,0.0,1.0,90,0.00,,,0.00,Wunderground v.1.15,2013-12-01 12:25:00,
2013-12-01 07:30:00,26.1,23.6,30.25,East,79,0.0,1.0,90,0.00,,,0.00,Wunderground v.1.15,2013-12-01 12:30:00,
2013-12-01 07:35:00,26.1,23.6,30.26,East,79,0.0,1.0,90,0.00,,,0.00,Wunderground v.1.15,2013-12-01 12:35:00,
2013-12-01 07:40:00,26.2,23.7,30.25,East,79,0.0,1.0,90,0.00,,,0.00,Wunderground v.1.15,2013-12-01 12:40:00,
2013-12-01 07:45:00,26.3,23.8,30.25,East,79,0.0,1.0,90,0.00,,,0.00,Wunderground v.1.15,2013-12-01 12:45:00,
2013-12-01 07:50:00,26.3,24.0,30.25,East,79,0.0,1.0,91,0.00,,,0.00,Wunderground v.1.15,2013-12-01 12:50:00,
2013-12-01 07:55:00,26.5,24.2,30.25,East,79,0.0,1.0,91,0.00,,,0.00,Wunderground v.1.15,2013-12-01 12:55:00,
2013-12-01 08:00:00,26.6,24.3,30.25,East,79,0.0,1.0,91,0.00,,,0.00,Wunderground v.1.15,2013-12-01 13:00:00,
2013-12-01 08:05:00,26.7,24.4,30.25,East,79,0.0,1.0,91,0.00,,,0.00,Wunderground v.1.15,2013-12-01 13:05:00,
2013-12-01 08:10:00,26.9,24.6,30.25,East,79,0.0,1.0,91,0.00,,,0.00,Wunderground v.1.15,2013-12-01 13:10:00,
2013-12-01 08:15:00,27.0,24.7,30.25,East,79,0.0,1.0,91,0.00,,,0.00,Wunderground v.1.15,2013-12-01 13:15:00,
2013-12-01 08:20:00,27.2,24.9,30.25,East,79,0.0,1.0,91,0.00,,,0.00,Wunderground v.1.15,2013-12-01 13:20:00,
2013-12-01 08:24:00,27.4,25.1,30.25,East,79,0.0,1.0,91,0.00,,,0.00,Wunderground v.1.15,2013-12-01 13:24:00,
2013-12-01 08:30:00,27.6,25.3,30.25,East,79,0.0,1.0,91,0.00,,,0.00,Wunderground v.1.15,2013-12-01 13:30:00,
2013-12-01 08:35:00,27.7,25.4,30.25,East,79,0.0,1.0,91,0.00,,,0.00,Wunderground v.1.15,2013-12-01 13:35:00,
2013-12-01 08:40:00,27.9,25.6,30.25,East,79,0.0,1.0,91,0.00,,,0.00,Wunderground v.1.15,2013-12-01 13:40:00,
2013-12-01 08:45:00,28.1,25.5,30.25,East,79,0.0,1.0,90,0.00,,,0.00,Wunderground v.1.15,2013-12-01 13:45:00,
2013-12-01 08:50:00,28.3,25.7,30.25,East,79,0.0,1.0,90,0.00,,,0.00,Wunderground v.1.15,2013-12-01 13:50:00,
2013-12-01 08:55:00,28.5,25.9,30.25,East,79,0.0,1.0,90,0.00,,,0.00,Wunderground v.1.15,2013-12-01 13:55:00,
2013-12-01 09:00:00,28.7,26.1,30.25,East,79,0.0,1.0,90,0.00,,,0.00,Wunderground v.1.15,2013-12-01 14:00:00,
2013-12-01 09:05:00,28.9,26.1,30.25,East,79,0.0,1.0,89,0.00,,,0.00,Wunderground v.1.15,2013-12-01 14:05:00,
2013-12-01 09:10:00,29.2,26.4,30.25,East,79,0.0,1.0,89,0.00,,,0.00,Wunderground v.1.15,2013-12-01 14:10:00,
2013-12-01 09:15:00,29.4,26.6,30.24,East,79,0.0,1.0,89,0.00,,,0.00,Wunderground v.1.15,2013-12-01 14:15:00,
2013-12-01 09:20:00,29.7,26.6,30.24,East,79,0.0,1.0,88,0.00,,,0.00,Wunderground v.1.15,2013-12-01 14:20:00,
2013-12-01 09:25:00,29.9,26.5,30.24,East,79,0.0,1.0,87,0.00,,,0.00,Wunderground v.1.15,2013-12-01 14:25:00,
2013-12-01 09:30:00,30.2,26.8,30.24,East,79,0.0,1.0,87,0.00,,,0.00,Wunderground v.1.15,2013-12-01 14:30:00,
2013-12-01 09:35:00,30.4,26.7,30.24,East,79,0.0,1.0,86,0.00,,,0.00,Wunderground v.1.15,2013-12-01 14:35:00,
2013-12-01 09:39:00,30.5,26.8,30.24,East,79,0.0,1.0,86,0.00,,,0.00,Wunderground v.1.15,2013-12-01 14:39:00,
2013-12-01 09:45:00,30.7,26.7,30.24,East,79,0.0,1.0,85,0.00,,,0.00,Wunderground v.1.15,2013-12-01 14:45:00,
2013-12-01 09:50:00,30.9,26.9,30.24,East,79,0.0,1.0,85,0.00,,,0.00,Wunderground v.1.15,2013-12-01 14:50:00,
2013-12-01 09:55:00,31.2,26.9,30.23,East,79,0.0,1.0,84,0.00,,,0.00,Wunderground v.1.15,2013-12-01 14:55:00,
2013-12-01 10:00:00,31.5,27.2,30.23,East,79,0.0,1.0,84,0.00,,,0.00,Wunderground v.1.15,2013-12-01 15:00:00,
2013-12-01 10:05:00,31.8,27.5,30.23,East,79,0.0,1.0,84,0.00,,,0.00,Wunderground v.1.15,2013-12-01 15:05:00,
2013-12-01 10:10:00,32.0,27.4,30.23,East,79,0.0,1.0,83,0.00,,,0.00,Wunderground v.1.15,2013-12-01 15:10:00,
2013-12-01 10:15:00,32.2,27.3,30.23,East,79,0.0,1.0,82,0.00,,,0.00,Wunderground v.1.15,2013-12-01 15:15:00,
2013-12-01 10:25:00,32.6,27.7,30.23,East,84,0.0,1.0,82,0.00,,,0.00,Wunderground v.1.15,2013-12-01 15:25:00,
2013-12-01 10:30:00,32.7,27.5,30.22,East,84,0.0,1.0,81,0.00,,,0.00,Wunderground v.1.15,2013-12-01 15:30:00,
2013-12-01 10:35:00,32.9,27.7,30.22,East,84,0.0,1.0,81,0.00,,,0.00,Wunderground v.1.15,2013-12-01 15:35:00,
2013-12-01 10:40:00,33.0,27.5,30.22,East,84,0.0,1.0,80,0.00,,,0.00,Wunderground v.1.15,2013-12-01 15:40:00,
2013-12-01 10:45:00,33.2,27.7,30.21,East,84,0.0,1.0,80,0.00,,,0.00,Wunderground v.1.15,2013-12-01 15:45:00,
2013-12-01 10:50:00,33.5,28.3,30.21,East,84,0.0,1.0,81,0.00,,,0.00,Wunderground v.1.15,2013-12-01 15:50:00,
2013-12-01 10:55:00,33.6,28.1,30.20,East,84,0.0,1.0,80,0.00,,,0.00,Wunderground v.1.15,2013-12-01 15:55:00,
2013-12-01 11:00:00,33.8,28.3,30.20,East,84,0.0,1.0,80,0.00,,,0.00,Wunderground v.1.15,2013-12-01 16:00:00,
2013-12-01 11:05:00,34.1,28.6,30.20,East,84,0.0,1.0,80,0.00,,,0.00,Wunderground v.1.15,2013-12-01 16:05:00,
2013-12-01 11:10:00,34.3,28.5,30.19,East,84,0.0,1.0,79,0.00,,,0.00,Wunderground v.1.15,2013-12-01 16:10:00,
2013-12-01 11:15:00,34.6,28.8,30.19,East,84,0.0,1.0,79,0.00,,,0.00,Wunderground v.1.15,2013-12-01 16:15:00,
2013-12-01 11:20:00,34.9,28.7,30.18,East,84,0.0,1.0,78,0.00,,,0.00,Wunderground v.1.15,2013-12-01 16:20:00,
2013-12-01 11:25:00,35.0,28.5,30.18,East,84,0.0,1.0,77,0.00,,,0.00,Wunderground v.1.15,2013-12-01 16:25:00,
2013-12-01 11:30:00,35.1,28.6,30.18,East,84,0.0,1.0,77,0.00,,,0.00,Wunderground v.1.15,2013-12-01 16:30:00,
2013-12-01 11:34:00,35.2,29.0,30.18,East,84,0.0,1.0,78,0.00,,,0.00,Wunderground v.1.15,2013-12-01 16:34:00,
2013-12-01 11:40:00,35.4,28.9,30.18,East,84,0.0,1.0,77,0.00,,,0.00,Wunderground v.1.15,2013-12-01 16:40:00,
2013-12-01 11:45:00,35.3,28.8,30.18,East,84,0.0,1.0,77,0.00,,,0.00,Wunderground v.1.15,2013-12-01 16:45:00,
2013-12-01 11:50:00,35.3,28.8,30.17,East,84,0.0,1.0,77,0.00,,,0.00,Wunderground v.1.15,2013-12-01 16:50:00,
2013-12-01 11:55:00,35.5,29.0,30.17,East,82,0.0,1.0,77,0.00,,,0.00,Wunderground v.1.15,2013-12-01 16:55:00,
2013-12-01 12:00:00,35.7,28.9,30.17,East,82,0.0,1.0,76,0.00,,,0.00,Wunderground v.1.15,2013-12-01 17:00:00,
2013-12-01 12:05:00,35.8,29.0,30.17,East,82,0.0,1.0,76,0.00,,,0.00,Wunderground v.1.15,2013-12-01 17:05:00,
2013-12-01 12:10:00,35.9,29.1,30.17,East,82,0.0,1.0,76,0.00,,,0.00,Wunderground v.1.15,2013-12-01 17:10:00,
2013-12-01 12:15:00,36.0,28.8,30.16,East,82,0.0,1.0,75,0.00,,,0.00,Wunderground v.1.15,2013-12-01 17:15:00,
2013-12-01 12:20:00,36.0,28.8,30.16,East,82,0.0,1.0,75,0.00,,,0.00,Wunderground v.1.15,2013-12-01 17:20:00,
2013-12-01 12:25:00,36.1,28.9,30.16,East,82,0.0,1.0,75,0.00,,,0.00,Wunderground v.1.15,2013-12-01 17:25:00,
2013-12-01 12:30:00,36.2,29.4,30.16,East,82,0.0,1.0,76,0.00,,,0.00,Wunderground v.1.15,2013-12-01 17:30:00,
2013-12-01 12:35:00,36.2,29.4,30.16,East,82,0.0,1.0,76,0.00,,,0.00,Wunderground v.1.15,2013-12-01 17:35:00,
2013-12-01 12:40:00,36.3,29.5,30.15,East,82,0.0,1.0,76,0.00,,,0.00,Wunderground v.1.15,2013-12-01 17:40:00,
2013-12-01 12:45:00,36.4,29.6,30.15,East,82,0.0,1.0,76,0.00,,,0.00,Wunderground v.1.15,2013-12-01 17:45:00,
2013-12-01 12:50:00,36.4,29.2,30.15,East,82,0.0,1.0,75,0.00,,,0.00,Wunderground v.1.15,2013-12-01 17:50:00,
2013-12-01 12:55:00,36.3,29.1,30.15,East,82,0.0,1.0,75,0.00,,,0.00,Wunderground v.1.15,2013-12-01 17:55:00,
2013-12-01 13:00:00,36.2,29.0,30.14,East,82,0.0,1.0,75,0.00,,,0.00,Wunderground v.1.15,2013-12-01 18:00:00,
2013-12-01 13:05:00,36.2,29.4,30.14,East,82,0.0,1.0,76,0.00,,,0.00,Wunderground v.1.15,2013-12-01 18:05:00,
2013-12-01 13:10:00,36.2,29.0,30.14,East,82,0.0,1.0,75,0.00,,,0.00,Wunderground v.1.15,2013-12-01 18:10:00,
2013-12-01 13:15:00,36.3,29.5,30.14,East,82,0.0,1.0,76,0.00,,,0.00,Wunderground v.1.15,2013-12-01 18:15:00,
2013-12-01 13:20:00,36.4,29.2,30.14,East,82,0.0,1.0,75,0.00,,,0.00,Wunderground v.1.15,2013-12-01 18:20:00,
2013-12-01 13:30:00,36.5,29.3,30.13,East,82,0.0,1.0,75,0.00,,,0.00,Wunderground v.1.15,2013-12-01 18:30:00,
2013-12-01 13:40:00,36.6,29.1,30.13,East,82,0.0,1.0,74,0.00,,,0.00,Wunderground v.1.15,2013-12-01 18:40:00,
2013-12-01 13:45:00,36.7,29.5,30.13,East,82,0.0,1.0,75,0.00,,,0.00,Wunderground v.1.15,2013-12-01 18:45:00,
2013-12-01 13:50:00,36.8,29.6,30.13,East,82,0.0,1.0,75,0.00,,,0.00,Wunderground v.1.15,2013-12-01 18:50:00,
2013-12-01 13:55:00,36.9,29.4,30.12,East,82,0.0,1.0,74,0.00,,,0.00,Wunderground v.1.15,2013-12-01 18:55:00,
2013-12-01 14:00:00,36.9,29.4,30.12,East,82,0.0,1.0,74,0.00,,,0.00,Wunderground v.1.15,2013-12-01 19:00:00,
2013-12-01 14:05:00,37.0,29.5,30.12,East,82,0.0,1.0,74,0.00,,,0.00,Wunderground v.1.15,2013-12-01 19:05:00,
2013-12-01 14:15:00,37.0,29.1,30.12,East,85,0.0,1.0,73,0.00,,,0.00,Wunderground v.1.15,2013-12-01 19:15:00,
2013-12-01 14:20:00,37.0,29.1,30.12,East,85,0.0,1.0,73,0.00,,,0.00,Wunderground v.1.15,2013-12-01 19:20:00,
2013-12-01 14:25:00,37.1,29.2,30.12,East,85,0.0,1.0,73,0.00,,,0.00,Wunderground v.1.15,2013-12-01 19:25:00,
2013-12-01 14:30:00,37.1,29.2,30.12,East,85,0.0,1.0,73,0.00,,,0.00,Wunderground v.1.15,2013-12-01 19:30:00,
2013-12-01 14:35:00,37.2,29.3,30.12,East,85,0.0,1.0,73,0.00,,,0.00,Wunderground v.1.15,2013-12-01 19:35:00,
2013-12-01 14:40:00,37.3,29.4,30.12,East,85,0.0,1.0,73,0.00,,,0.00,Wunderground v.1.15,2013-12-01 19:40:00,
2013-12-01 14:45:00,37.3,29.1,30.12,East,85,0.0,1.0,72,0.00,,,0.00,Wunderground v.1.15,2013-12-01 19:45:00,
2013-12-01 14:50:00,37.3,29.4,30.12,East,85,0.0,1.0,73,0.00,,,0.00,Wunderground v.1.15,2013-12-01 19:50:00,
2013-12-01 14:55:00,37.4,29.2,30.12,East,85,0.0,1.0,72,0.00,,,0.00,Wunderground v.1.15,2013-12-01 19:55:00,
2013-12-01 15:00:00,37.3,29.1,30.12,East,85,0.0,1.0,72,0.00,,,0.00,Wunderground v.1.15,2013-12-01 20:00:00,
2013-12-01 15:05:00,37.2,29.3,30.12,East,85,0.0,1.0,73,0.00,,,0.00,Wunderground v.1.15,2013-12-01 20:05:00,
2013-12-01 15:10:00,37.2,29.3,30.12,East,85,0.0,1.0,73,0.00,,,0.00,Wunderground v.1.15,2013-12-01 20:10:00,
2013-12-01 15:15:00,37.2,29.3,30.12,East,85,0.0,1.0,73,0.00,,,0.00,Wunderground v.1.15,2013-12-01 20:15:00,
2013-12-01 15:20:00,37.2,29.3,30.12,East,85,0.0,1.0,73,0.00,,,0.00,Wunderground v.1.15,2013-12-01 20:20:00,
2013-12-01 15:24:00,37.1,28.9,30.12,East,85,0.0,1.0,72,0.00,,,0.00,Wunderground v.1.15,2013-12-01 20:24:00,
2013-12-01 15:30:00,37.1,29.2,30.11,East,85,0.0,1.0,73,0.00,,,0.00,Wunderground v.1.15,2013-12-01 20:30:00,
2013-12-01 15:35:00,37.0,29.1,30.11,East,85,0.0,1.0,73,0.00,,,0.00,Wunderground v.1.15,2013-12-01 20:35:00,
2013-12-01 15:40:00,36.9,29.4,30.11,East,85,0.0,1.0,74,0.00,,,0.00,Wunderground v.1.15,2013-12-01 20:40:00,
2013-12-01 15:45:00,36.7,29.2,30.11,East,85,0.0,1.0,74,0.00,,,0.00,Wunderground v.1.15,2013-12-01 20:45:00,
2013-12-01 15:50:00,36.6,29.1,30.11,East,85,0.0,1.0,74,0.00,,,0.00,Wunderground v.1.15,2013-12-01 20:50:00,
2013-12-01 15:55:00,36.4,28.9,30.11,East,85,0.0,1.0,74,0.00,,,0.00,Wunderground v.1.15,2013-12-01 20:55:00,
2013-12-01 16:00:00,36.2,29.0,30.11,East,85,0.0,1.0,75,0.00,,,0.00,Wunderground v.1.15,2013-12-01 21:00:00,
2013-12-01 16:10:00,35.7,28.9,30.11,East,85,0.0,1.0,76,0.00,,,0.00,Wunderground v.1.15,2013-12-01 21:10:00,
2013-12-01 16:15:00,35.4,28.6,30.11,East,85,0.0,1.0,76,0.00,,,0.00,Wunderground v.1.15,2013-12-01 21:15:00,
2013-12-01 16:20:00,35.2,28.7,30.10,East,85,0.0,1.0,77,0.00,,,0.00,Wunderground v.1.15,2013-12-01 21:20:00,
2013-12-01 16:25:00,35.0,28.5,30.11,East,85,0.0,1.0,77,0.00,,,0.00,Wunderground v.1.15,2013-12-01 21:25:00,
2013-12-01 16:30:00,34.8,28.3,30.11,East,85,0.0,1.0,77,0.00,,,0.00,Wunderground v.1.15,2013-12-01 21:30:00,
2013-12-01 16:35:00,34.7,28.2,30.11,East,85,0.0,1.0,77,0.00,,,0.00,Wunderground v.1.15,2013-12-01 21:35:00,
2013-12-01 16:40:00,34.5,28.3,30.11,East,85,0.0,1.0,78,0.00,,,0.00,Wunderground v.1.15,2013-12-01 21:40:00,
2013-12-01 16:45:00,34.4,28.2,30.11,East,85,0.0,1.0,78,0.00,,,0.00,Wunderground v.1.15,2013-12-01 21:45:00,
2013-12-01 16:50:00,34.2,28.1,30.11,East,85,0.0,1.0,78,0.00,,,0.00,Wunderground v.1.15,2013-12-01 21:50:00,
2013-12-01 16:55:00,34.1,28.3,30.11,East,85,0.0,1.0,79,0.00,,,0.00,Wunderground v.1.15,2013-12-01 21:55:00,
2013-12-01 17:00:00,34.0,28.2,30.11,East,85,0.0,1.0,79,0.00,,,0.00,Wunderground v.1.15,2013-12-01 22:00:00,
2013-12-01 17:05:00,33.9,28.1,30.10,East,85,0.0,1.0,79,0.00,,,0.00,Wunderground v.1.15,2013-12-01 22:05:00,
2013-12-01 17:10:00,33.8,28.0,30.10,East,85,0.0,1.0,79,0.00,,,0.00,Wunderground v.1.15,2013-12-01 22:10:00,
2013-12-01 17:14:00,33.6,28.1,30.10,East,85,0.0,1.0,80,0.00,,,0.00,Wunderground v.1.15,2013-12-01 22:14:00,
2013-12-01 17:20:00,33.4,27.9,30.10,East,85,0.0,1.0,80,0.00,,,0.00,Wunderground v.1.15,2013-12-01 22:20:00,
2013-12-01 17:25:00,33.3,27.8,30.10,East,85,0.0,1.0,80,0.00,,,0.00,Wunderground v.1.15,2013-12-01 22:25:00,
2013-12-01 17:30:00,33.2,27.7,30.10,East,85,0.0,1.0,80,0.00,,,0.00,Wunderground v.1.15,2013-12-01 22:30:00,
2013-12-01 17:35:00,33.0,27.5,30.10,East,85,0.0,1.0,80,0.00,,,0.00,Wunderground v.1.15,2013-12-01 22:35:00,
2013-12-01 17:40:00,33.0,27.8,30.10,East,85,0.0,1.0,81,0.00,,,0.00,Wunderground v.1.15,2013-12-01 22:40:00,
2013-12-01 17:45:00,32.9,27.7,30.10,East,85,0.0,1.0,81,0.00,,,0.00,Wunderground v.1.15,2013-12-01 22:45:00,
2013-12-01 17:50:00,32.9,27.7,30.10,East,85,0.0,1.0,81,0.00,,,0.00,Wunderground v.1.15,2013-12-01 22:50:00,
2013-12-01 17:55:00,32.8,27.6,30.10,East,85,0.0,1.0,81,0.00,,,0.00,Wunderground v.1.15,2013-12-01 22:55:00,
2013-12-01 18:00:00,32.8,27.6,30.10,East,85,0.0,1.0,81,0.00,,,0.00,Wunderground v.1.15,2013-12-01 23:00:00,
2013-12-01 18:05:00,32.7,27.5,30.10,East,85,0.0,1.0,81,0.00,,,0.00,Wunderground v.1.15,2013-12-01 23:05:00,
2013-12-01 18:10:00,32.7,27.8,30.10,East,85,0.0,1.0,82,0.00,,,0.00,Wunderground v.1.15,2013-12-01 23:10:00,
2013-12-01 18:15:00,32.6,27.7,30.10,East,85,0.0,1.0,82,0.00,,,0.00,Wunderground v.1.15,2013-12-01 23:15:00,
2013-12-01 18:20:00,32.6,27.7,30.10,East,85,0.0,1.0,82,0.00,,,0.00,Wunderground v.1.15,2013-12-01 23:20:00,
2013-12-01 18:25:00,32.5,27.6,30.10,East,85,0.0,1.0,82,0.00,,,0.00,Wunderground v.1.15,2013-12-01 23:25:00,
2013-12-01 18:30:00,32.5,27.6,30.10,East,85,0.0,1.0,82,0.00,,,0.00,Wunderground v.1.15,2013-12-01 23:30:00,
2013-12-01 18:35:00,32.4,27.8,30.09,East,85,0.0,1.0,83,0.00,,,0.00,Wunderground v.1.15,2013-12-01 23:35:00,
2013-12-01 18:40:00,32.3,27.7,30.09,East,85,0.0,1.0,83,0.00,,,0.00,Wunderground v.1.15,2013-12-01 23:40:00,
2013-12-01 18:45:00,32.3,27.7,30.10,East,85,0.0,1.0,83,0.00,,,0.00,Wunderground v.1.15,2013-12-01 23:45:00,
2013-12-01 18:50:00,32.2,27.6,30.10,East,85,0.0,1.0,83,0.00,,,0.00,Wunderground v.1.15,2013-12-01 23:50:00,
2013-12-01 18:55:00,32.1,27.5,30.10,East,85,0.0,1.0,83,0.00,,,0.00,Wunderground v.1.15,2013-12-01 23:55:00,
2013-12-01 19:00:00,32.1,27.8,30.09,East,85,0.0,1.0,84,0.00,,,0.00,Wunderground v.1.15,2013-12-02 00:00:00,
2013-12-01 19:05:00,32.1,27.8,30.09,East,85,0.0,1.0,84,0.00,,,0.00,Wunderground v.1.15,2013-12-02 00:05:00,
2013-12-01 19:15:00,32.1,29.2,30.09,East,85,0.0,1.0,89,0.00,,,0.00,Wunderground v.1.15,2013-12-02 00:15:00,
2013-12-01 19:20:00,32.0,27.4,30.09,East,85,0.0,1.0,83,0.00,,,0.00,Wunderground v.1.15,2013-12-02 00:20:00,
2013-12-01 19:25:00,32.0,27.4,30.09,East,85,0.0,1.0,83,0.00,,,0.00,Wunderground v.1.15,2013-12-02 00:25:00,
2013-12-01 19:30:00,31.9,27.3,30.09,East,85,0.0,1.0,83,0.00,,,0.00,Wunderground v.1.15,2013-12-02 00:30:00,
2013-12-01 19:35:00,31.9,27.3,30.09,East,85,0.0,1.0,83,0.00,,,0.00,Wunderground v.1.15,2013-12-02 00:35:00,
2013-12-01 19:40:00,31.8,27.5,30.09,East,85,0.0,1.0,84,0.00,,,0.00,Wunderground v.1.15,2013-12-02 00:40:00,
2013-12-01 19:45:00,31.7,27.4,30.09,East,85,0.0,1.0,84,0.00,,,0.00,Wunderground v.1.15,2013-12-02 00:45:00,
2013-12-01 19:50:00,31.7,27.4,30.09,East,85,0.0,1.0,84,0.00,,,0.00,Wunderground v.1.15,2013-12-02 00:50:00,
2013-12-01 19:54:00,31.6,27.3,30.09,East,85,0.0,1.0,84,0.00,,,0.00,Wunderground v.1.15,2013-12-02 00:54:00,
2013-12-01 20:00:00,31.6,27.3,30.09,East,85,0.0,1.0,84,0.00,,,0.00,Wunderground v.1.15,2013-12-02 01:00:00,
2013-12-01 20:05:00,31.5,27.2,30.09,East,85,0.0,1.0,84,0.00,,,0.00,Wunderground v.1.15,2013-12-02 01:05:00,
2013-12-01 20:10:00,31.5,27.2,30.09,East,85,0.0,1.0,84,0.00,,,0.00,Wunderground v.1.15,2013-12-02 01:10:00,
2013-12-01 20:15:00,31.4,27.1,30.09,East,85,0.0,1.0,84,0.00,,,0.00,Wunderground v.1.15,2013-12-02 01:15:00,
2013-12-01 20:20:00,31.2,27.2,30.09,East,85,0.0,1.0,85,0.00,,,0.00,Wunderground v.1.15,2013-12-02 01:20:00,
2013-12-01 20:25:00,31.2,27.2,30.09,East,85,0.0,1.0,85,0.00,,,0.00,Wunderground v.1.15,2013-12-02 01:25:00,
2013-12-01 20:30:00,31.0,27.0,30.09,East,85,0.0,1.0,85,0.00,,,0.00,Wunderground v.1.15,2013-12-02 01:30:00,
2013-12-01 20:35:00,31.0,27.0,30.08,East,85,0.0,1.0,85,0.00,,,0.00,Wunderground v.1.15,2013-12-02 01:35:00,
2013-12-01 20:40:00,30.9,27.2,30.08,East,85,0.0,1.0,86,0.00,,,0.00,Wunderground v.1.15,2013-12-02 01:40:00,
2013-12-01 20:45:00,30.9,27.2,30.08,East,85,0.0,1.0,86,0.00,,,0.00,Wunderground v.1.15,2013-12-02 01:45:00,
2013-12-01 20:50:00,30.8,27.1,30.07,East,85,0.0,1.0,86,0.00,,,0.00,Wunderground v.1.15,2013-12-02 01:50:00,
2013-12-01 20:55:00,30.8,27.1,30.07,East,85,0.0,1.0,86,0.00,,,0.00,Wunderground v.1.15,2013-12-02 01:55:00,
2013-12-01 21:00:00,30.7,27.0,30.07,East,85,0.0,1.0,86,0.00,,,0.00,Wunderground v.1.15,2013-12-02 02:00:00,
2013-12-01 21:05:00,30.7,27.3,30.07,East,85,0.0,1.0,87,0.00,,,0.00,Wunderground v.1.15,2013-12-02 02:05:00,
2013-12-01 21:09:00,30.7,27.3,30.07,East,85,0.0,1.0,87,0.00,,,0.00,Wunderground v.1.15,2013-12-02 02:09:00,
2013-12-01 21:15:00,30.7,27.3,30.07,East,85,0.0,1.0,87,0.00,,,0.00,Wunderground v.1.15,2013-12-02 02:15:00,
2013-12-01 21:20:00,30.7,27.3,30.07,East,85,0.0,1.0,87,0.00,,,0.00,Wunderground v.1.15,2013-12-02 02:20:00,
2013-12-01 21:25:00,30.7,27.3,30.07,East,85,0.0,1.0,87,0.00,,,0.00,Wunderground v.1.15,2013-12-02 02:25:00,
2013-12-01 21:30:00,30.7,27.6,30.07,East,85,0.0,1.0,88,0.00,,,0.00,Wunderground v.1.15,2013-12-02 02:30:00,
2013-12-01 21:35:00,30.8,27.7,30.07,East,85,0.0,1.0,88,0.00,,,0.00,Wunderground v.1.15,2013-12-02 02:35:00,
2013-12-01 21:40:00,30.8,27.7,30.07,East,85,0.0,1.0,88,0.00,,,0.00,Wunderground v.1.15,2013-12-02 02:40:00,
2013-12-01 21:45:00,30.8,27.7,30.07,East,85,0.0,1.0,88,0.00,,,0.00,Wunderground v.1.15,2013-12-02 02:45:00,
2013-12-01 21:49:00,30.8,27.7,30.07,East,85,0.0,1.0,88,0.00,,,0.00,Wunderground v.1.15,2013-12-02 02:49:00,
2013-12-01 21:55:00,30.8,27.7,30.07,East,85,0.0,1.0,88,0.00,,,0.00,Wunderground v.1.15,2013-12-02 02:55:00,
2013-12-01 22:00:00,30.8,27.7,30.07,East,85,0.0,1.0,88,0.00,,,0.00,Wunderground v.1.15,2013-12-02 03:00:00,
2013-12-01 22:05:00,30.7,27.6,30.07,East,85,0.0,1.0,88,0.00,,,0.00,Wunderground v.1.15,2013-12-02 03:05:00,
2013-12-01 22:10:00,30.7,27.6,30.07,East,85,0.0,1.0,88,0.00,,,0.00,Wunderground v.1.15,2013-12-02 03:10:00,
2013-12-01 22:15:00,30.7,27.6,30.07,East,85,0.0,1.0,88,0.00,,,0.00,Wunderground v.1.15,2013-12-02 03:15:00,
2013-12-01 22:20:00,30.7,27.6,30.07,East,85,0.0,1.0,88,0.00,,,0.00,Wunderground v.1.15,2013-12-02 03:20:00,
2013-12-01 22:25:00,30.6,27.5,30.07,East,85,0.0,1.0,88,0.00,,,0.00,Wunderground v.1.15,2013-12-02 03:25:00,
2013-12-01 22:30:00,30.6,27.5,30.07,East,85,0.0,1.0,88,0.00,,,0.00,Wunderground v.1.15,2013-12-02 03:30:00,
2013-12-01 22:35:00,30.7,27.6,30.07,East,85,0.0,1.0,88,0.00,,,0.00,Wunderground v.1.15,2013-12-02 03:35:00,
2013-12-01 22:40:00,30.7,27.6,30.07,East,85,0.0,1.0,88,0.00,,,0.00,Wunderground v.1.15,2013-12-02 03:40:00,
2013-12-01 22:45:00,30.7,27.6,30.06,East,85,0.0,1.0,88,0.00,,,0.00,Wunderground v.1.15,2013-12-02 03:45:00,
2013-12-01 22:50:00,30.6,27.5,30.06,East,85,0.0,1.0,88,0.00,,,0.00,Wunderground v.1.15,2013-12-02 03:50:00,
2013-12-01 22:55:00,30.5,27.4,30.06,East,85,0.0,1.0,88,0.00,,,0.00,Wunderground v.1.15,2013-12-02 03:55:00,
2013-12-01 23:00:00,30.5,27.4,30.06,East,85,0.0,1.0,88,0.00,,,0.00,Wunderground v.1.15,2013-12-02 04:00:00,
2013-12-01 23:04:00,30.5,27.4,30.06,East,85,0.0,1.0,88,0.00,,,0.00,Wunderground v.1.15,2013-12-02 04:04:00,
2013-12-01 23:10:00,30.6,27.5,30.06,East,85,0.0,1.0,88,0.00,,,0.00,Wunderground v.1.15,2013-12-02 04:10:00,
2013-12-01 23:15:00,30.5,27.6,30.06,East,85,0.0,1.0,89,0.00,,,0.00,Wunderground v.1.15,2013-12-02 04:15:00,
2013-12-01 23:20:00,30.6,27.7,30.06,East,85,0.0,1.0,89,0.00,,,0.00,Wunderground v.1.15,2013-12-02 04:20:00,
2013-12-01 23:25:00,30.5,27.6,30.06,East,85,0.0,1.0,89,0.00,,,0.00,Wunderground v.1.15,2013-12-02 04:25:00,
2013-12-01 23:30:00,30.6,27.7,30.05,East,85,0.0,1.0,89,0.00,,,0.00,Wunderground v.1.15,2013-12-02 04:30:00,
2013-12-01 23:35:00,30.6,27.7,30.06,East,85,0.0,1.0,89,0.00,,,0.00,Wunderground v.1.15,2013-12-02 04:35:00,
2013-12-01 23:40:00,30.7,27.8,30.06,East,85,0.0,1.0,89,0.00,,,0.00,Wunderground v.1.15,2013-12-02 04:40:00,
2013-12-01 23:45:00,30.7,27.8,30.06,East,85,0.0,1.0,89,0.00,,,0.00,Wunderground v.1.15,2013-12-02 04:45:00,
2013-12-01 23:50:00,30.8,27.9,30.06,East,85,0.0,1.0,89,0.00,,,0.00,Wunderground v.1.15,2013-12-02 04:50:00,
2013-12-01 23:55:00,30.8,27.9,30.06,East,85,0.0,1.0,89,0.00,,,0.00,Wunderground v.1.15,2013-12-02 04:55:00,